Friday Harbor, WA (98250)

6:32 AM PDT on October 25, 2014 (GMT -0700)
San Juan Wx | Change Station
CLOSE
Current Station
Personal Weather Station
Location: Friday Harbor, WA
Elevation: 223 ft
Nearby Weather Stations

Elev 223 ft 48.51 °N, 123.04 °W | Updated 10 minutes ago

Mostly Cloudy
Mostly Cloudy
46.0 °F
Feels Like 46 °F
N
0.0
Wind Variable Wind from WSW

Today
High -- | Low -- °F
--% Chance of Precip.
Yesterday
High -- | Low -- °F
Precip. -- in
7:47 AM 6:04 PM
Waxing Crescent, 3% visible
Pressure 29.52 in
Visibility 10.0 miles
Clouds Mostly Cloudy 11000 ft
Windchill 46 °F
Dew Point 44 °F
Humidity 91%
Rainfall 0.18 in
Snow Depth Not available.
UV 0 out of 12
Pollen .40 out of 12
Air Quality Not available.
Flu Activity Sporadic
METAR KFHR 251253Z AUTO 36009KT 10SM BKN110 09/07 A2952 RMK AO2 SLP996 T00940072

More Conditions Fewer Conditions

Pressure 29.52 in
Visibility 10.0 miles
Clouds Mostly Cloudy 11000 ft
Windchill 46 °F
Dew Point 44 °F
Humidity 91%
Rainfall 0.18 in
Snow Depth Not available.
UV 0 out of 12
Pollen .40 out of 12
Air Quality Not available.
Flu Activity Sporadic
METAR KFHR 251253Z AUTO 36009KT 10SM BKN110 09/07 A2952 RMK AO2 SLP996 T00940072

More Conditions Fewer Conditions

10-Day Weather Forecast

Almanac

Astronomy

Oct. 25, 2014 Rise Set
Actual Time 7:47 AM PDT 6:04 PM PDT
Civil Twilight 7:15 AM PDT 6:36 PM PDT
Nautical Twilight 6:38 AM PDT 7:13 PM PDT
Astronomical Twilight 6:02 AM PDT 7:49 PM PDT
Moon 9:38 AM PDT 7:24 PM PDT
Length of Visible Light 11h 21m
Length of Day
10h 16m
Tomorrow will be 3m 19s shorter.
Waxing Crescent, 3% of the Moon is Illuminated
Today
Waxing Crescent
Oct 30
First Quarter
Nov 6
Full
Nov 14
Last Quarter
Nov 22
New

Today's Extremes

State Highs State Lows

Community

WunderPhotos

Upload Photos

1,764,829 photos uploaded!

Nearby

Snow Depth

Station Depth Elevation
Waterhole 1 in 5000 ft
Dungeness 0 in 4100 ft
Elbow Lake 0 in 3200 ft
Mf Nooksack 1 in 4980 ft
Wells Creek 0 in 4200 ft

Earthquake Activity

City Distance Mag. Time & Date
Birch Bay, Washington 22 miles 2.8 3:02 AM PDT
2014-10-24
Minimum magnitude displayed is 2.5.

Coastal Water Temperatures

Place Temperature
Port Townsend, WA 52.0 °F
Friday Harbor, WA 51.1 °F
Port Angeles, WA 57.0 °F

Nearby Weather Stations